Time;durP1;ratioP1;P1;durP2;ratioP2;P2;SDS_P1;SDS_P2;PMS_P1;PMS_P2;Temp;Humidity;BMP_temperature;BMP_pressure;BME280_temperature;BME280_humidity;BME280_pressure;Samples;Min_cycle;Max_cycle;Signal;HPM_P1;HPM_P2
2023/09/11 00:02:18;;;;;;;14.05;6.32;;;;;;;21.49;60.70;100417.19;5050815;28;20582;-69
2023/09/11 00:04:46;;;;;;;10.98;6.78;;;;;;;21.44;60.91;100419.19;5050649;28;20226;-68
2023/09/11 00:07:16;;;;;;;10.15;6.22;;;;;;;21.43;60.92;100417.50;5017017;28;20555;-69
2023/09/11 00:09:44;;;;;;;11.35;6.28;;;;;;;21.42;61.03;100410.53;5043828;28;20260;-68
2023/09/11 00:12:12;;;;;;;14.23;7.20;;;;;;;21.38;61.03;100414.25;5041719;28;20202;-68
2023/09/11 00:14:40;;;;;;;12.18;6.80;;;;;;;21.34;61.31;100410.94;5050329;28;20206;-68
2023/09/11 00:17:07;;;;;;;9.00;5.43;;;;;;;21.33;61.58;100411.00;5050322;28;20214;-70
2023/09/11 00:19:37;;;;;;;12.25;6.13;;;;;;;21.32;61.34;100406.66;5052605;28;20214;-68
2023/09/11 00:22:05;;;;;;;13.90;7.05;;;;;;;21.32;61.45;100409.28;5054040;28;20202;-70
2023/09/11 00:24:35;;;;;;;8.02;6.05;;;;;;;21.34;61.36;100400.44;5049093;28;20325;-71
2023/09/11 00:27:03;;;;;;;11.50;6.60;;;;;;;21.28;61.48;100398.09;5044785;28;20216;-71
2023/09/11 00:29:31;;;;;;;13.65;6.35;;;;;;;21.26;61.44;100388.63;5054501;28;20297;-71
2023/09/11 00:31:59;;;;;;;11.30;5.63;;;;;;;21.19;61.74;100386.31;5044116;28;20215;-70
2023/09/11 00:34:29;;;;;;;13.13;6.55;;;;;;;21.13;62.13;100376.13;5050652;28;20198;-72
2023/09/11 00:36:58;;;;;;;10.23;6.78;;;;;;;21.06;62.03;100387.88;5054527;28;20275;-72
2023/09/11 00:39:27;;;;;;;9.38;6.32;;;;;;;21.01;62.36;100382.00;5054110;28;20202;-70
2023/09/11 00:41:56;;;;;;;12.18;6.80;;;;;;;20.99;62.40;100386.47;5054198;28;20208;-71
2023/09/11 00:44:24;;;;;;;16.10;6.47;;;;;;;20.99;62.66;100383.84;5039853;28;20239;-71
2023/09/11 00:46:52;;;;;;;9.23;6.60;;;;;;;20.98;62.75;100374.28;5054202;28;20236;-69
2023/09/11 00:49:21;;;;;;;10.10;6.20;;;;;;;21.01;62.59;100378.53;5054294;28;20653;-70
2023/09/11 00:51:50;;;;;;;8.80;6.22;;;;;;;21.02;62.72;100380.22;5053883;28;20721;-69
2023/09/11 00:54:22;;;;;;;15.52;5.90;;;;;;;21.00;62.50;100380.31;5042044;28;20676;-69
2023/09/11 00:56:50;;;;;;;12.63;6.85;;;;;;;20.97;62.68;100376.06;5045392;28;20289;-72
2023/09/11 00:59:20;;;;;;;9.45;6.50;;;;;;;21.01;62.86;100378.53;5044707;28;20206;-72
2023/09/11 01:01:48;;;;;;;10.07;6.85;;;;;;;21.00;62.82;100375.06;5040032;28;20539;-71
2023/09/11 01:04:18;;;;;;;16.08;6.75;;;;;;;21.00;62.71;100377.69;5054136;28;20279;-70
2023/09/11 01:06:46;;;;;;;10.90;6.80;;;;;;;20.99;62.94;100376.00;5049473;28;20586;-74
2023/09/11 01:09:14;;;;;;;11.23;6.60;;;;;;;21.00;62.89;100380.31;5042685;28;20202;-72
2023/09/11 01:11:42;;;;;;;7.97;6.38;;;;;;;21.01;62.72;100376.75;5043654;28;20210;-71
2023/09/11 01:14:10;;;;;;;10.57;6.40;;;;;;;21.07;62.76;100373.84;5041047;28;20268;-72
2023/09/11 01:16:46;;;;;;;8.50;6.13;;;;;;;21.10;62.46;100373.69;5038724;28;20260;-71
2023/09/11 01:19:42;;;;;;;12.55;6.72;;;;;;;21.11;62.29;100380.63;5040502;28;20209;-72
2023/09/11 01:22:43;;;;;;;8.48;6.95;;;;;;;21.08;62.39;100367.66;5050263;28;20198;-69
2023/09/11 01:25:39;;;;;;;10.85;7.22;;;;;;;21.06;62.40;100372.16;5037180;28;20223;-70
2023/09/11 01:28:30;;;;;;;12.05;7.07;;;;;;;21.01;62.69;100368.88;5039919;28;20267;-70
2023/09/11 01:30:59;;;;;;;11.50;6.13;;;;;;;20.99;62.97;100368.13;5051560;28;20229;-71
2023/09/11 01:33:27;;;;;;;9.30;6.90;;;;;;;20.99;62.85;100362.91;5035054;28;20241;-71
2023/09/11 01:35:56;;;;;;;10.68;6.65;;;;;;;20.97;62.87;100367.34;5053212;28;20648;-72
2023/09/11 01:38:24;;;;;;;12.07;6.70;;;;;;;20.93;63.13;100365.81;5047585;28;20649;-70
2023/09/11 01:40:54;;;;;;;11.82;7.20;;;;;;;20.92;63.24;100367.59;5053114;28;20205;-71
2023/09/11 01:43:26;;;;;;;15.75;6.55;;;;;;;20.90;63.27;100360.72;5052846;28;20209;-73
2023/09/11 01:45:54;;;;;;;14.65;6.45;;;;;;;20.89;63.30;100356.41;5053313;28;20565;-72
2023/09/11 01:48:25;;;;;;;12.95;6.82;;;;;;;20.89;63.08;100359.88;5038834;28;20213;-71
2023/09/11 01:50:53;;;;;;;8.48;6.20;;;;;;;20.88;63.20;100349.47;5052745;28;20206;-71
2023/09/11 01:53:21;;;;;;;11.90;6.68;;;;;;;20.89;63.21;100348.53;5038536;28;20205;-71
2023/09/11 01:55:49;;;;;;;9.23;6.85;;;;;;;20.88;63.09;100341.63;5050049;28;20237;-73
2023/09/11 01:58:17;;;;;;;15.05;7.47;;;;;;;20.86;63.14;100340.84;5050016;28;20209;-70
2023/09/11 02:00:45;;;;;;;11.02;6.63;;;;;;;20.84;63.17;100346.16;5041506;28;20305;-72
2023/09/11 02:03:16;;;;;;;7.88;6.25;;;;;;;20.81;63.51;100337.59;5052670;28;20237;-72
2023/09/11 02:05:45;;;;;;;11.82;6.43;;;;;;;20.78;63.71;100335.97;5052510;28;20217;-73
2023/09/11 02:08:13;;;;;;;11.98;6.22;;;;;;;20.77;63.51;100342.16;5052981;28;20256;-71
2023/09/11 02:10:41;;;;;;;11.18;7.22;;;;;;;20.75;63.59;100342.22;5045809;28;20511;-70
2023/09/11 02:13:09;;;;;;;11.02;6.78;;;;;;;20.72;63.30;100341.50;5045490;28;20244;-72
2023/09/11 02:15:37;;;;;;;14.98;8.02;;;;;;;20.71;63.85;100340.66;5052173;28;20210;-71
2023/09/11 02:18:07;;;;;;;13.82;6.90;;;;;;;20.71;63.67;100338.03;5052205;28;20230;-70
2023/09/11 02:20:35;;;;;;;11.10;6.90;;;;;;;20.71;63.49;100343.28;5052058;28;20209;-69
2023/09/11 02:23:04;;;;;;;11.85;6.78;;;;;;;20.66;63.45;100342.66;5052108;28;20295;-70
2023/09/11 02:25:32;;;;;;;10.70;6.88;;;;;;;20.65;63.86;100345.34;5036436;28;20713;-72
2023/09/11 02:28:00;;;;;;;11.43;6.95;;;;;;;20.62;64.00;100341.13;5038245;28;20198;-71
2023/09/11 02:30:28;;;;;;;11.02;7.15;;;;;;;20.61;64.07;100342.03;5051973;28;20210;-71
2023/09/11 02:32:56;;;;;;;12.73;6.70;;;;;;;20.59;64.00;100346.50;5045410;28;20655;-70
2023/09/11 02:35:24;;;;;;;12.82;7.10;;;;;;;20.56;64.10;100335.34;5052267;28;20228;-70
2023/09/11 02:37:52;;;;;;;11.30;6.63;;;;;;;20.57;64.53;100348.34;5052247;28;20255;-70
2023/09/11 02:40:22;;;;;;;12.75;7.75;;;;;;;20.56;64.07;100333.56;5052113;28;20206;-71
2023/09/11 02:42:50;;;;;;;12.80;7.28;;;;;;;20.54;64.09;100348.47;5051312;28;20613;-69
2023/09/11 02:45:18;;;;;;;10.45;6.80;;;;;;;20.53;64.16;100346.78;5051246;28;20214;-69
2023/09/11 02:47:45;;;;;;;10.40;6.90;;;;;;;20.50;64.13;100346.94;5037775;28;20662;-68
2023/09/11 02:50:13;;;;;;;8.38;6.82;;;;;;;20.49;64.37;100347.81;5037636;28;20210;-69
2023/09/11 02:52:41;;;;;;;10.73;7.30;;;;;;;20.47;64.27;100342.69;5049385;28;20637;-70
2023/09/11 02:55:11;;;;;;;8.68;7.15;;;;;;;20.45;64.82;100348.91;5051323;28;20649;-69
2023/09/11 02:57:40;;;;;;;13.00;7.32;;;;;;;20.43;64.53;100341.09;5051182;28;20667;-68
2023/09/11 03:00:10;;;;;;;15.00;7.65;;;;;;;20.44;64.53;100339.34;5051175;28;20224;-69
2023/09/11 03:02:39;;;;;;;9.35;7.05;;;;;;;20.44;64.50;100339.34;5051227;28;20296;-68
2023/09/11 03:05:07;;;;;;;14.82;7.15;;;;;;;20.37;64.47;100344.03;5048320;28;20682;-68
2023/09/11 03:07:35;;;;;;;10.60;7.00;;;;;;;20.35;64.89;100342.41;5040086;28;20233;-68
2023/09/11 03:10:04;;;;;;;12.50;7.57;;;;;;;20.27;65.13;100335.75;5051122;28;20210;-68
2023/09/11 03:12:32;;;;;;;11.80;7.20;;;;;;;20.24;65.33;100330.66;5034603;28;20575;-69
2023/09/11 03:15:03;;;;;;;17.67;7.18;;;;;;;20.23;65.27;100333.34;5045147;28;20209;-68
2023/09/11 03:17:31;;;;;;;9.98;7.22;;;;;;;20.20;65.20;100333.50;5050741;28;20231;-68
2023/09/11 03:19:59;;;;;;;15.20;7.38;;;;;;;20.19;65.34;100324.81;5037854;28;20210;-67
2023/09/11 03:22:30;;;;;;;13.63;7.35;;;;;;;20.16;65.55;100322.31;5047830;28;20741;-69
2023/09/11 03:24:58;;;;;;;10.68;7.70;;;;;;;20.13;65.47;100322.47;5040159;28;20229;-69
2023/09/11 03:27:26;;;;;;;15.38;7.30;;;;;;;20.14;65.44;100324.19;5045682;28;20574;-68
2023/09/11 03:29:54;;;;;;;16.70;8.02;;;;;;;20.11;65.73;100319.09;5050833;28;20206;-71
2023/09/11 03:32:23;;;;;;;10.73;7.10;;;;;;;20.10;65.75;100321.75;5051050;28;20206;-67
2023/09/11 03:34:54;;;;;;;13.90;7.55;;;;;;;20.11;65.86;100313.84;5030977;28;20286;-68
2023/09/11 03:37:22;;;;;;;16.08;7.32;;;;;;;20.08;65.77;100314.00;5043528;28;20241;-68
2023/09/11 03:39:50;;;;;;;12.73;7.63;;;;;;;20.06;65.84;100314.97;5036470;28;20208;-69
2023/09/11 03:42:18;;;;;;;12.07;6.95;;;;;;;20.03;65.98;100316.00;5050714;28;20204;-68
2023/09/11 03:44:49;;;;;;;9.68;6.90;;;;;;;19.96;66.31;100314.56;5050854;28;20608;-70
2023/09/11 03:47:17;;;;;;;11.75;7.65;;;;;;;19.93;66.51;100310.31;5050429;28;20321;-68
2023/09/11 03:49:46;;;;;;;12.90;7.80;;;;;;;19.93;66.26;100309.47;5036231;28;20210;-68
2023/09/11 03:52:14;;;;;;;13.13;7.65;;;;;;;19.88;66.23;100308.81;5047704;28;20606;-68
2023/09/11 03:54:42;;;;;;;15.80;7.18;;;;;;;19.88;66.30;100308.81;5051965;28;20271;-69
2023/09/11 03:57:10;;;;;;;9.40;8.18;;;;;;;19.83;66.54;100311.66;5041806;28;20244;-69
2023/09/11 03:59:38;;;;;;;9.65;7.07;;;;;;;19.80;66.94;100314.41;5054320;28;20325;-68
2023/09/11 04:02:06;;;;;;;12.18;7.88;;;;;;;19.81;66.92;100308.28;5026586;28;20298;-67
2023/09/11 04:04:34;;;;;;;10.38;7.82;;;;;;;19.81;66.78;100307.41;5054642;28;20679;-69
2023/09/11 04:07:04;;;;;;;14.43;7.30;;;;;;;19.81;66.66;100310.00;5049880;28;20746;-68
2023/09/11 04:09:32;;;;;;;12.07;7.57;;;;;;;19.76;66.93;100303.22;5034524;28;20199;-68
2023/09/11 04:12:01;;;;;;;12.10;8.00;;;;;;;19.77;66.90;100301.47;5039912;28;20207;-70
2023/09/11 04:14:29;;;;;;;13.85;8.40;;;;;;;19.77;66.83;100304.06;5034195;28;20237;-69
2023/09/11 04:16:57;;;;;;;12.18;8.23;;;;;;;19.76;67.12;100299.78;5050490;28;20198;-70
2023/09/11 04:19:25;;;;;;;12.27;7.50;;;;;;;19.76;66.91;100297.16;5054411;28;20209;-69
2023/09/11 04:21:54;;;;;;;11.82;8.13;;;;;;;19.78;66.85;100305.78;5052578;28;20225;-69
2023/09/11 04:24:23;;;;;;;12.88;8.20;;;;;;;19.79;66.80;100294.41;5050429;28;20234;-67
2023/09/11 04:26:52;;;;;;;12.35;7.70;;;;;;;19.79;66.58;100303.09;5034191;28;20722;-69
2023/09/11 04:29:21;;;;;;;13.05;7.10;;;;;;;19.79;66.73;100303.09;5050322;28;20198;-68
2023/09/11 04:31:49;;;;;;;11.23;8.13;;;;;;;19.81;66.88;100302.16;5053209;28;20667;-70
2023/09/11 04:34:19;;;;;;;12.25;7.75;;;;;;;19.78;66.58;100295.34;5049309;28;20210;-69
2023/09/11 04:36:47;;;;;;;11.57;8.35;;;;;;;19.79;66.74;100304.88;5053799;28;20296;-68
2023/09/11 04:39:15;;;;;;;12.55;7.97;;;;;;;19.78;66.60;100297.94;5053168;28;20293;-68
2023/09/11 04:41:44;;;;;;;11.20;8.23;;;;;;;19.74;66.94;100294.63;5053031;28;20427;-68
2023/09/11 04:44:12;;;;;;;18.45;8.32;;;;;;;19.73;67.04;100298.13;5053721;28;20208;-67
2023/09/11 04:46:40;;;;;;;12.18;8.70;;;;;;;19.72;66.80;100301.69;5053460;28;20214;-66
2023/09/11 04:49:08;;;;;;;13.82;8.75;;;;;;;19.70;67.03;100292.19;5053754;28;20564;-67
2023/09/11 04:51:36;;;;;;;12.02;8.98;;;;;;;19.71;67.11;100294.75;5050149;28;20214;-69
2023/09/11 04:54:04;;;;;;;12.13;8.68;;;;;;;19.78;67.02;100295.34;5043992;28;20210;-68
2023/09/11 04:56:32;;;;;;;18.80;8.73;;;;;;;19.87;66.47;100294.91;5035552;28;20198;-68
2023/09/11 04:59:01;;;;;;;11.73;7.88;;;;;;;19.95;66.22;100297.16;5053251;28;20210;-68
2023/09/11 05:01:29;;;;;;;12.43;8.00;;;;;;;20.01;65.93;100296.88;5053468;28;20206;-69
2023/09/11 05:04:03;;;;;;;13.32;8.02;;;;;;;20.08;65.75;100295.69;5053098;28;20225;-72
2023/09/11 05:06:31;;;;;;;11.45;8.27;;;;;;;20.12;65.67;100293.78;5039430;28;20219;-68
2023/09/11 05:08:59;;;;;;;21.25;9.57;;;;;;;20.11;65.31;100292.94;5053186;28;20202;-71
2023/09/11 05:11:30;;;;;;;20.02;8.57;;;;;;;20.08;65.21;100295.69;5045847;28;20622;-71
2023/09/11 05:13:58;;;;;;;13.70;8.40;;;;;;;20.08;65.39;100297.47;5052658;28;20272;-70
2023/09/11 05:16:27;;;;;;;12.57;7.90;;;;;;;20.02;65.16;100294.19;5053372;28;20237;-71
2023/09/11 05:18:57;;;;;;;15.80;8.10;;;;;;;19.98;65.59;100291.78;5053236;28;20695;-71
2023/09/11 05:21:25;;;;;;;11.48;7.95;;;;;;;19.92;65.59;100287.72;5051223;28;20681;-70
2023/09/11 05:23:53;;;;;;;17.15;8.30;;;;;;;19.91;65.70;100288.59;5053475;28;20704;-71
2023/09/11 05:26:21;;;;;;;12.75;8.48;;;;;;;19.90;65.71;100289.53;5039787;28;20690;-72
2023/09/11 05:28:49;;;;;;;17.00;8.25;;;;;;;19.86;65.77;100287.13;5053929;28;20710;-70
2023/09/11 05:31:17;;;;;;;17.45;8.60;;;;;;;19.87;66.33;100289.66;5053276;28;20645;-70
2023/09/11 05:33:47;;;;;;;10.25;7.97;;;;;;;19.90;65.97;100293.91;5046466;28;20697;-70
2023/09/11 05:36:15;;;;;;;14.43;8.55;;;;;;;19.91;65.98;100290.38;5049279;28;20297;-71
2023/09/11 05:38:43;;;;;;;14.43;7.68;;;;;;;19.95;65.91;100297.16;5032665;28;20214;-70
2023/09/11 05:41:11;;;;;;;15.50;8.82;;;;;;;19.97;65.85;100297.94;5047007;28;20657;-71
2023/09/11 05:43:40;;;;;;;15.30;8.63;;;;;;;19.99;65.83;100301.31;5032494;28;20207;-72
2023/09/11 05:46:08;;;;;;;14.23;8.88;;;;;;;20.04;66.05;100296.75;5045206;28;20250;-71
2023/09/11 05:48:36;;;;;;;16.38;9.02;;;;;;;20.08;65.36;100298.28;5049933;28;20212;-73
2023/09/11 05:51:05;;;;;;;16.77;8.75;;;;;;;20.09;65.43;100300.00;5052700;28;20932;-72
2023/09/11 05:53:34;;;;;;;15.20;8.68;;;;;;;20.12;65.10;100297.22;5052463;28;20619;-71
2023/09/11 05:56:02;;;;;;;14.07;8.80;;;;;;;20.13;65.50;100296.31;5052360;28;20237;-70
2023/09/11 05:58:30;;;;;;;16.35;8.88;;;;;;;20.10;65.30;100299.06;5051940;28;20206;-71
2023/09/11 06:00:58;;;;;;;19.30;9.60;;;;;;;20.12;65.25;100299.84;5041678;28;20244;-71
2023/09/11 06:03:26;;;;;;;17.98;9.02;;;;;;;20.12;65.30;100299.00;5035433;28;20279;-71
2023/09/11 06:05:55;;;;;;;16.25;8.57;;;;;;;20.15;65.49;100298.88;5042948;28;20240;-69
2023/09/11 06:08:24;;;;;;;18.88;9.55;;;;;;;20.20;65.26;100295.09;5033841;28;20218;-74
2023/09/11 06:10:53;;;;;;;13.30;9.18;;;;;;;20.29;65.35;100293.81;5049741;28;20587;-70
2023/09/11 06:13:21;;;;;;;14.93;9.13;;;;;;;20.36;64.81;100294.34;5045175;28;20206;-69
2023/09/11 06:15:49;;;;;;;13.73;8.77;;;;;;;20.40;64.92;100294.16;5050467;28;20214;-67
2023/09/11 06:18:17;;;;;;;12.95;8.98;;;;;;;20.48;64.38;100297.25;5051502;28;20208;-68
2023/09/11 06:20:45;;;;;;;17.10;9.27;;;;;;;20.64;64.37;100297.38;5051490;28;20206;-68
2023/09/11 06:23:13;;;;;;;13.50;8.65;;;;;;;20.97;63.69;100296.63;5039691;28;20292;-69
2023/09/11 06:25:42;;;;;;;15.40;8.93;;;;;;;21.40;62.50;100287.44;5036119;28;20202;-68
2023/09/11 06:28:10;;;;;;;12.70;8.40;;;;;;;21.91;61.11;100288.19;5050602;28;20213;-70
2023/09/11 06:30:38;;;;;;;15.07;8.85;;;;;;;22.41;59.30;100281.06;5051655;28;20213;-69
2023/09/11 06:33:06;;;;;;;14.45;8.85;;;;;;;22.89;57.37;100271.28;5045009;28;20206;-69
2023/09/11 06:35:34;;;;;;;12.70;8.63;;;;;;;23.23;55.70;100279.81;5051506;28;20221;-70
2023/09/11 06:38:02;;;;;;;11.38;8.25;;;;;;;23.60;55.12;100271.38;5051466;28;20264;-69
2023/09/11 06:40:32;;;;;;;15.45;9.27;;;;;;;23.95;53.46;100276.22;5051418;28;20206;-70
2023/09/11 06:43:01;;;;;;;11.50;7.97;;;;;;;24.27;52.62;100281.22;5051560;28;20661;-69
2023/09/11 06:45:31;;;;;;;12.65;7.75;;;;;;;24.55;51.78;100280.28;5048269;28;20542;-69
2023/09/11 06:47:59;;;;;;;16.85;8.10;;;;;;;24.81;50.61;100283.81;5033759;28;20226;-69
2023/09/11 06:50:29;;;;;;;16.35;8.68;;;;;;;25.08;50.02;100280.28;5044807;28;20241;-67
2023/09/11 06:52:57;;;;;;;13.55;9.18;;;;;;;25.32;49.04;100281.25;5033622;28;20209;-68
2023/09/11 06:55:25;;;;;;;18.52;8.40;;;;;;;25.53;48.84;100279.75;5041091;28;20432;-70
2023/09/11 06:57:57;;;;;;;13.02;8.05;;;;;;;25.71;48.28;100284.69;5040030;28;20661;-68
2023/09/11 07:00:27;;;;;;;14.93;8.68;;;;;;;25.81;47.15;100280.47;5049335;28;20386;-70
2023/09/11 07:02:56;;;;;;;11.98;8.43;;;;;;;25.92;47.02;100277.94;5051034;28;20236;-67
2023/09/11 07:05:26;;;;;;;13.82;8.88;;;;;;;26.07;46.41;100280.38;5031830;28;20203;-69
2023/09/11 07:07:54;;;;;;;14.45;8.32;;;;;;;26.27;46.20;100277.16;5042834;28;20249;-69
2023/09/11 07:10:22;;;;;;;16.83;8.00;;;;;;;26.40;45.53;100274.44;5051360;28;20649;-68
2023/09/11 07:13:07;;;;;;;17.55;8.60;;;;;;;26.62;45.19;100277.22;5036537;28;20201;-68
2023/09/11 07:15:36;;;;;;;14.25;7.95;;;;;;;26.69;44.29;100277.56;5037023;28;20296;-68
2023/09/11 07:18:05;;;;;;;15.68;8.18;;;;;;;26.82;44.47;100281.00;5051180;28;20217;-69
2023/09/11 07:20:33;;;;;;;12.75;9.15;;;;;;;26.94;44.19;100282.69;5051036;28;20210;-69
2023/09/11 07:23:02;;;;;;;10.60;7.93;;;;;;;27.11;43.48;100272.66;5050734;28;20248;-70
2023/09/11 07:25:30;;;;;;;13.13;8.63;;;;;;;27.25;42.78;100274.22;5037965;28;20202;-69
2023/09/11 07:27:59;;;;;;;15.35;8.38;;;;;;;27.41;42.70;100269.44;5039014;28;20314;-70
2023/09/11 07:30:27;;;;;;;13.35;9.70;;;;;;;27.59;42.68;100268.00;5050976;28;20756;-68
2023/09/11 07:32:56;;;;;;;14.38;8.48;;;;;;;27.79;42.08;100270.88;5029040;28;20198;-70
2023/09/11 07:35:24;;;;;;;16.25;8.32;;;;;;;27.99;41.25;100262.19;5050683;28;20235;-70
2023/09/11 07:37:53;;;;;;;11.32;7.70;;;;;;;28.22;40.68;100265.63;5050912;28;20202;-72
2023/09/11 07:40:22;;;;;;;13.15;7.90;;;;;;;28.42;40.15;100261.34;5050380;28;20213;-69
2023/09/11 07:42:49;;;;;;;15.18;7.55;;;;;;;28.55;39.63;100255.88;5049553;28;20572;-69
2023/09/11 07:45:18;;;;;;;12.48;7.68;;;;;;;28.65;39.38;100257.63;5037944;28;20256;-71
2023/09/11 07:47:45;;;;;;;9.98;7.93;;;;;;;28.82;39.01;100256.19;5050383;28;20248;-69
2023/09/11 07:50:15;;;;;;;15.60;7.93;;;;;;;29.00;39.09;100253.00;5023002;28;20198;-70
2023/09/11 07:52:43;;;;;;;13.90;9.13;;;;;;;29.24;38.65;100248.25;5050432;28;20206;-71
2023/09/11 07:55:10;;;;;;;13.48;8.18;;;;;;;29.46;38.27;100249.00;5048767;28;20202;-70
2023/09/11 07:57:40;;;;;;;15.35;7.75;;;;;;;29.64;37.50;100254.53;5050815;28;20271;-71
2023/09/11 08:00:09;;;;;;;12.25;7.43;;;;;;;29.74;37.08;100253.59;5037277;28;20271;-70
2023/09/11 08:02:37;;;;;;;18.20;7.85;;;;;;;29.87;36.97;100256.03;5040726;28;20222;-69
2023/09/11 08:05:05;;;;;;;10.88;7.65;;;;;;;30.09;36.20;100249.63;5047217;28;20553;-68
2023/09/11 08:07:38;;;;;;;12.27;7.18;;;;;;;30.22;36.04;100258.19;5050864;28;20210;-70
2023/09/11 08:10:06;;;;;;;10.75;7.25;;;;;;;30.43;35.07;100247.41;5036859;28;20206;-70
2023/09/11 08:12:35;;;;;;;13.05;7.28;;;;;;;30.74;35.38;100250.75;5033844;28;20213;-70
2023/09/11 08:15:03;;;;;;;9.65;6.57;;;;;;;31.13;34.08;100261.31;5030988;28;20305;-69
2023/09/11 08:17:31;;;;;;;8.23;6.15;;;;;;;31.42;33.62;100252.41;5043615;28;20203;-69
2023/09/11 08:19:59;;;;;;;12.73;6.63;;;;;;;31.56;32.81;100246.59;5043893;28;20210;-68
2023/09/11 08:22:27;;;;;;;13.20;6.38;;;;;;;31.66;32.27;100250.03;5050684;28;20210;-70
2023/09/11 08:24:57;;;;;;;10.32;6.38;;;;;;;31.70;32.75;100245.25;5041343;28;20666;-68
2023/09/11 08:27:25;;;;;;;10.07;7.00;;;;;;;31.82;32.53;100251.22;5031058;28;20218;-70
2023/09/11 08:29:55;;;;;;;13.15;6.40;;;;;;;31.99;31.78;100248.59;5050043;28;20253;-68
2023/09/11 08:32:23;;;;;;;9.38;6.32;;;;;;;32.39;31.25;100241.13;5044660;28;20654;-69
2023/09/11 08:34:51;;;;;;;12.00;6.85;;;;;;;32.76;31.17;100248.13;5049854;28;20194;-68
2023/09/11 08:37:19;;;;;;;12.40;6.57;;;;;;;33.08;30.36;100247.53;5050509;28;20213;-68
2023/09/11 08:39:49;;;;;;;9.50;5.90;;;;;;;33.18;29.42;100246.41;5051087;28;20198;-68
2023/09/11 08:42:18;;;;;;;11.25;6.32;;;;;;;33.45;29.39;100243.69;5043462;28;20723;-67
2023/09/11 08:44:46;;;;;;;10.40;6.32;;;;;;;33.84;29.10;100246.66;5037329;28;20712;-68
2023/09/11 08:47:16;;;;;;;12.07;6.32;;;;;;;34.38;28.17;100244.44;5053618;28;20240;-68
2023/09/11 08:49:51;;;;;;;9.35;5.78;;;;;;;34.71;27.38;100249.81;5053248;28;20225;-66
2023/09/11 08:52:20;;;;;;;13.73;5.93;;;;;;;34.85;27.28;100236.56;5053506;28;20197;-68
2023/09/11 08:54:52;;;;;;;8.93;6.07;;;;;;;35.30;26.74;100239.63;5051519;28;20567;-67
2023/09/11 08:57:25;;;;;;;13.82;5.95;;;;;;;35.78;26.30;100243.13;5052460;28;20202;-67
2023/09/11 09:00:00;;;;;;;10.93;6.20;;;;;;;36.22;26.04;100240.66;5053301;28;20243;-68
2023/09/11 09:02:29;;;;;;;9.52;5.97;;;;;;;36.55;25.40;100239.59;5053629;28;20205;-67
2023/09/11 09:04:58;;;;;;;11.15;6.10;;;;;;;36.76;25.34;100237.03;5053279;28;20214;-67
2023/09/11 09:07:26;;;;;;;17.60;6.25;;;;;;;36.73;25.44;100237.41;5053161;28;20206;-66
2023/09/11 09:09:55;;;;;;;9.27;5.75;;;;;;;36.58;25.39;100232.00;5045516;28;20665;-67
2023/09/11 09:12:26;;;;;;;10.23;6.05;;;;;;;36.29;25.63;100235.41;5044682;28;20313;-68
2023/09/11 09:14:54;;;;;;;15.98;6.07;;;;;;;35.91;25.61;100232.66;5052996;28;20251;-67
2023/09/11 09:17:22;;;;;;;16.20;6.43;;;;;;;35.40;26.69;100226.88;5052840;28;20237;-68
2023/09/11 09:19:50;;;;;;;13.05;6.00;;;;;;;34.93;27.03;100227.66;5052928;28;20210;-68
2023/09/11 09:22:18;;;;;;;14.65;5.63;;;;;;;34.58;28.16;100232.44;5052922;28;20190;-68
2023/09/11 09:24:52;;;;;;;11.55;5.43;;;;;;;34.08;28.83;100233.38;5046154;28;20242;-66
2023/09/11 09:27:21;;;;;;;13.70;5.35;;;;;;;33.57;29.44;100231.75;5046596;28;20297;-66
2023/09/11 09:29:51;;;;;;;6.70;5.28;;;;;;;33.17;30.08;100228.69;5052632;28;20217;-67
2023/09/11 09:32:19;;;;;;;9.48;6.10;;;;;;;32.90;30.15;100232.38;5033603;28;20215;-66
2023/09/11 09:34:53;;;;;;;7.32;6.07;;;;;;;32.85;29.81;100231.19;5050741;28;20278;-67
2023/09/11 09:37:22;;;;;;;11.00;5.00;;;;;;;32.63;29.53;100227.19;5052667;28;20290;-67
2023/09/11 09:39:50;;;;;;;9.70;5.78;;;;;;;32.28;29.57;100226.22;5045570;28;20203;-67
2023/09/11 09:42:18;;;;;;;12.40;6.10;;;;;;;31.93;30.44;100222.56;5043812;28;20646;-66
2023/09/11 09:44:53;;;;;;;7.28;5.90;;;;;;;31.76;31.17;100220.69;5052716;28;20684;-68
2023/09/11 09:47:23;;;;;;;11.40;5.78;;;;;;;31.76;31.72;100216.19;5052763;28;20247;-66
2023/09/11 09:49:52;;;;;;;9.02;5.13;;;;;;;31.61;32.30;100216.84;5052731;28;20697;-69
2023/09/11 09:52:22;;;;;;;6.97;5.68;;;;;;;31.56;32.48;100219.97;5051374;28;20703;-67
2023/09/11 09:54:54;;;;;;;11.00;5.25;;;;;;;31.58;32.06;100206.50;5052642;28;20244;-66
2023/09/11 09:57:24;;;;;;;9.73;5.63;;;;;;;31.63;32.52;100213.06;5043861;28;20632;-67
2023/09/11 09:59:57;;;;;;;12.68;5.68;;;;;;;31.79;32.60;100203.56;5034142;28;20210;-67
2023/09/11 10:02:28;;;;;;;8.60;5.63;;;;;;;31.93;31.44;100206.56;5044461;28;20207;-70
2023/09/11 10:04:57;;;;;;;9.55;5.70;;;;;;;31.96;31.54;100205.41;5033698;28;20202;-67
2023/09/11 10:07:38;;;;;;;7.68;5.63;;;;;;;32.06;31.80;100202.69;5052676;28;20209;-67
2023/09/11 10:10:21;;;;;;;10.07;5.75;;;;;;;32.17;31.68;100205.09;5048151;28;20246;-69
2023/09/11 10:12:54;;;;;;;7.40;5.55;;;;;;;32.28;31.88;100201.38;5033524;28;20629;-66
2023/09/11 10:15:22;;;;;;;6.80;5.35;;;;;;;32.41;31.26;100200.03;5049179;28;20208;-66
2023/09/11 10:17:54;;;;;;;9.38;5.60;;;;;;;32.48;30.84;100194.91;5052765;28;20697;-67
2023/09/11 10:20:23;;;;;;;8.18;5.50;;;;;;;32.57;31.32;100193.97;5052102;28;20295;-69
2023/09/11 10:22:54;;;;;;;12.55;5.60;;;;;;;32.51;31.71;100191.91;5049795;28;20202;-66
2023/09/11 10:25:23;;;;;;;6.00;5.38;;;;;;;32.77;31.39;100183.06;5040294;28;20213;-67
2023/09/11 10:27:57;;;;;;;11.60;5.30;;;;;;;33.14;30.37;100175.63;5035985;28;20202;-66
2023/09/11 10:30:34;;;;;;;6.38;5.75;;;;;;;33.52;29.75;100175.28;5048642;28;20226;-67
2023/09/11 10:33:09;;;;;;;6.35;5.05;;;;;;;34.16;29.07;100173.72;5037466;28;20202;-65
2023/09/11 10:35:41;;;;;;;6.57;5.43;;;;;;;34.87;26.97;100169.44;5051836;28;20205;-66
2023/09/11 10:38:09;;;;;;;9.80;4.70;;;;;;;35.19;25.65;100173.03;5051446;28;20259;-66
2023/09/11 10:40:39;;;;;;;6.00;4.90;;;;;;;35.36;25.33;100166.59;5051476;28;20202;-67
2023/09/11 10:43:12;;;;;;;7.88;4.78;;;;;;;35.66;25.10;100180.19;5051148;28;20205;-67
2023/09/11 10:45:41;;;;;;;8.25;4.93;;;;;;;36.03;23.67;100174.09;5040758;28;20237;-66
2023/09/11 10:48:28;;;;;;;7.15;4.82;;;;;;;36.20;23.81;100164.06;5048545;28;20719;-66
2023/09/11 10:50:57;;;;;;;6.00;4.90;;;;;;;36.61;22.88;100163.69;5051555;28;20218;-66
2023/09/11 10:53:30;;;;;;;8.38;5.68;;;;;;;37.00;22.50;100156.19;5050995;28;20209;-65
2023/09/11 10:56:02;;;;;;;9.13;4.88;;;;;;;37.07;23.10;100152.78;5051291;28;20284;-67
2023/09/11 10:58:31;;;;;;;5.88;5.05;;;;;;;37.22;23.04;100149.03;5050862;28;20202;-67
2023/09/11 11:01:01;;;;;;;8.57;5.20;;;;;;;37.46;22.74;100147.91;5047873;28;20668;-66
2023/09/11 11:03:29;;;;;;;5.22;4.72;;;;;;;37.50;21.81;100147.53;5050541;28;20206;-68
2023/09/11 11:06:00;;;;;;;7.47;4.63;;;;;;;37.45;21.53;100145.41;5049043;28;20613;-68
2023/09/11 11:08:32;;;;;;;6.68;4.50;;;;;;;37.09;20.71;100148.91;5051099;28;20647;-66
2023/09/11 11:11:02;;;;;;;5.40;4.68;;;;;;;36.83;21.56;100151.22;5046859;28;20237;-68
2023/09/11 11:13:31;;;;;;;8.30;4.65;;;;;;;36.43;22.05;100151.44;5046664;28;20212;-66
2023/09/11 11:16:24;;;;;;;5.95;5.30;;;;;;;36.36;22.58;100155.03;5051119;28;20255;-67
2023/09/11 11:18:55;;;;;;;5.65;4.85;;;;;;;36.38;22.19;100148.47;5042806;28;20579;-66
2023/09/11 11:21:23;;;;;;;8.05;4.50;;;;;;;35.91;22.53;100143.31;5051196;28;20573;-66
2023/09/11 11:23:56;;;;;;;8.68;4.68;;;;;;;35.62;22.47;100152.91;5047641;28;20240;-67
2023/09/11 11:26:25;;;;;;;5.00;4.50;;;;;;;34.70;23.41;100152.59;5023334;28;20644;-66
2023/09/11 11:28:54;;;;;;;7.45;4.32;;;;;;;33.98;24.33;100151.63;5038075;28;20260;-66
2023/09/11 11:31:24;;;;;;;5.47;4.97;;;;;;;33.65;25.55;100149.75;5044588;28;20612;-68